Time;durP1;ratioP1;P1;durP2;ratioP2;P2;SDS_P1;SDS_P2;PMS_P1;PMS_P2;Temp;Humidity;BMP_temperature;BMP_pressure;BME280_temperature;BME280_humidity;BME280_pressure;Samples;Min_cycle;Max_cycle;Signal;HPM_P1;HPM_P2
2021/03/31 00:00:35;;;;;;;103.17;49.77;;;7.90;99.90;;;;;;4399594;28;658031;-85
2021/03/31 00:03:22;;;;;;;105.95;50.67;;;7.90;99.90;;;;;;4398766;28;659031;-85
2021/03/31 00:06:09;;;;;;;103.57;50.70;;;7.90;99.90;;;;;;4413931;28;658882;-85
2021/03/31 00:08:56;;;;;;;121.88;57.22;;;7.90;99.90;;;;;;4415203;28;659111;-86
2021/03/31 00:11:44;;;;;;;127.80;62.73;;;7.90;99.90;;;;;;4386674;28;658629;-85
2021/03/31 00:14:32;;;;;;;120.43;59.97;;;7.90;99.90;;;;;;4408892;28;658837;-85
2021/03/31 00:17:19;;;;;;;114.70;55.80;;;7.90;99.90;;;;;;4388734;28;658776;-85
2021/03/31 00:20:07;;;;;;;118.37;54.23;;;7.90;99.90;;;;;;4404200;28;658625;-86
2021/03/31 00:22:54;;;;;;;117.17;54.87;;;7.80;99.90;;;;;;4376675;28;659771;-85
2021/03/31 00:25:41;;;;;;;108.80;53.87;;;7.80;99.90;;;;;;4398415;28;659222;-86
2021/03/31 00:28:29;;;;;;;113.07;54.30;;;7.80;99.90;;;;;;4374313;28;658728;-86
2021/03/31 00:31:16;;;;;;;112.63;53.80;;;7.80;99.90;;;;;;4396452;28;659200;-86
2021/03/31 00:34:04;;;;;;;107.53;52.13;;;7.70;99.90;;;;;;4385198;28;658912;-85
2021/03/31 00:36:50;;;;;;;107.60;53.57;;;7.70;99.90;;;;;;4397967;28;658647;-86
2021/03/31 00:39:37;;;;;;;112.00;51.03;;;7.70;99.90;;;;;;4387068;28;658933;-86
2021/03/31 00:42:25;;;;;;;110.90;50.67;;;7.70;99.90;;;;;;4402169;28;659484;-86
2021/03/31 00:45:12;;;;;;;115.13;51.17;;;7.70;99.90;;;;;;4399594;28;658176;-86
2021/03/31 00:48:00;;;;;;;111.93;49.87;;;7.60;99.90;;;;;;4381795;28;660362;-86
2021/03/31 00:50:48;;;;;;;109.87;51.23;;;7.60;99.90;;;;;;4390606;28;659244;-86
2021/03/31 00:53:37;;;;;;;108.32;50.50;;;7.60;99.90;;;;;;4391986;28;659445;-86
2021/03/31 00:56:24;;;;;;;110.87;50.60;;;7.60;99.90;;;;;;4376497;28;659513;-85
2021/03/31 00:59:11;;;;;;;101.30;50.37;;;7.60;99.90;;;;;;4406052;28;659233;-86
2021/03/31 01:01:58;;;;;;;109.00;49.22;;;7.50;99.90;;;;;;4381213;28;658783;-86
2021/03/31 01:04:46;;;;;;;113.53;49.93;;;7.50;99.90;;;;;;4413656;28;659753;-85
2021/03/31 01:07:33;;;;;;;106.77;49.30;;;7.50;99.90;;;;;;4382587;28;658859;-86
2021/03/31 01:10:22;;;;;;;108.50;51.37;;;7.50;99.90;;;;;;4409457;28;659008;-86
2021/03/31 01:13:29;;;;;;;115.83;51.50;;;7.50;99.90;;;;;;4382848;28;659191;-86
2021/03/31 01:16:33;;;;;;;110.87;50.77;;;7.50;99.90;;;;;;4383946;28;659583;-86
2021/03/31 01:19:43;;;;;;;113.75;52.60;;;7.50;99.90;;;;;;4388109;28;658706;-85
2021/03/31 01:23:24;;;;;;;110.37;52.77;;;7.50;99.90;;;;;;4380255;28;658794;-85
2021/03/31 01:26:14;;;;;;;106.80;51.10;;;7.50;99.90;;;;;;4301932;28;658815;-85
2021/03/31 01:29:11;;;;;;;107.87;52.93;;;7.50;99.90;;;;;;4301080;28;658437;-86
2021/03/31 01:32:02;;;;;;;113.73;51.20;;;7.40;99.90;;;;;;4291481;28;658523;-85
2021/03/31 01:34:50;;;;;;;114.53;50.30;;;7.40;99.90;;;;;;4297098;28;659471;-86
2021/03/31 01:37:40;;;;;;;111.80;50.90;;;7.40;99.90;;;;;;4301570;28;659055;-86
2021/03/31 01:40:27;;;;;;;113.57;50.37;;;7.40;99.90;;;;;;4303561;28;658826;-86
2021/03/31 01:43:16;;;;;;;103.17;50.13;;;7.50;99.90;;;;;;4319550;28;658508;-86
2021/03/31 01:46:03;;;;;;;106.78;49.83;;;7.40;99.90;;;;;;4301097;28;658664;-85
2021/03/31 01:48:50;;;;;;;104.83;49.83;;;7.40;99.90;;;;;;4313426;28;659477;-86
2021/03/31 01:51:38;;;;;;;110.07;50.28;;;7.40;99.90;;;;;;4302273;28;659347;-87
2021/03/31 01:54:25;;;;;;;97.57;49.40;;;7.50;99.90;;;;;;4322666;28;658682;-86
2021/03/31 01:57:13;;;;;;;97.63;49.03;;;7.40;99.90;;;;;;4292015;29;657929;-85
2021/03/31 01:59:59;;;;;;;104.13;48.37;;;7.40;99.90;;;;;;4326906;28;657890;-86
2021/03/31 02:02:49;;;;;;;108.77;49.17;;;7.40;99.90;;;;;;4354035;28;658563;-85
2021/03/31 02:05:36;;;;;;;104.50;47.60;;;7.40;99.90;;;;;;4379315;28;658758;-86
2021/03/31 02:08:24;;;;;;;102.60;47.97;;;7.40;99.90;;;;;;4383779;28;659391;-86
2021/03/31 02:11:11;;;;;;;109.97;49.57;;;7.30;99.90;;;;;;4409247;28;659013;-86
2021/03/31 02:13:58;;;;;;;105.53;48.23;;;7.30;99.90;;;;;;4376896;28;658872;-85
2021/03/31 02:16:45;;;;;;;111.93;47.60;;;7.30;99.90;;;;;;4408108;28;658743;-86
2021/03/31 02:19:32;;;;;;;97.47;46.67;;;7.30;99.90;;;;;;4384245;28;658534;-86
2021/03/31 02:22:20;;;;;;;95.50;46.07;;;7.30;99.90;;;;;;4411340;28;657902;-86
2021/03/31 02:25:10;;;;;;;100.43;45.90;;;7.20;99.90;;;;;;4389686;28;657527;-86
2021/03/31 02:27:57;;;;;;;98.20;46.67;;;7.20;99.90;;;;;;4408848;28;658360;-86
2021/03/31 02:30:43;;;;;;;99.70;47.90;;;7.20;99.90;;;;;;4377618;28;657661;-86
2021/03/31 02:33:30;;;;;;;109.90;50.70;;;7.20;99.90;;;;;;4408445;28;657883;-85
2021/03/31 02:36:19;;;;;;;104.77;47.53;;;7.20;99.90;;;;;;4383141;28;658294;-86
2021/03/31 02:39:06;;;;;;;110.13;49.67;;;7.20;99.90;;;;;;4400166;28;659628;-86
2021/03/31 02:41:56;;;;;;;103.00;49.03;;;7.10;99.90;;;;;;4383166;28;658627;-86
2021/03/31 02:44:48;;;;;;;100.33;46.90;;;7.10;99.90;;;;;;4379206;28;658949;-86
2021/03/31 02:47:38;;;;;;;106.23;47.90;;;7.10;99.90;;;;;;4379277;28;659712;-86
2021/03/31 02:50:26;;;;;;;98.40;44.47;;;7.10;99.90;;;;;;4375681;28;659667;-86
2021/03/31 02:53:14;;;;;;;98.60;46.27;;;7.00;99.90;;;;;;4379347;28;657933;-86
2021/03/31 02:56:03;;;;;;;97.47;47.30;;;7.00;99.90;;;;;;4396830;28;658095;-86
2021/03/31 02:58:51;;;;;;;94.93;46.03;;;7.00;99.90;;;;;;4380677;28;657976;-86
2021/03/31 03:01:39;;;;;;;103.63;46.93;;;7.00;99.90;;;;;;4377795;28;657748;-86
2021/03/31 03:04:26;;;;;;;101.40;46.00;;;7.00;99.90;;;;;;4405535;28;659130;-86
2021/03/31 03:07:13;;;;;;;101.17;48.10;;;7.00;99.90;;;;;;4382975;28;658379;-86
2021/03/31 03:10:00;;;;;;;105.00;48.33;;;6.90;99.90;;;;;;4421272;28;659458;-85
2021/03/31 03:12:49;;;;;;;104.33;48.67;;;6.90;99.90;;;;;;4393318;28;658956;-86
2021/03/31 03:15:37;;;;;;;100.63;48.63;;;6.90;99.90;;;;;;4416051;28;658479;-85
2021/03/31 03:18:24;;;;;;;104.37;49.73;;;6.90;99.90;;;;;;4396318;28;658745;-86
2021/03/31 03:21:12;;;;;;;111.33;51.43;;;6.90;99.90;;;;;;4422417;28;658787;-86
2021/03/31 03:23:59;;;;;;;113.93;51.93;;;6.80;99.90;;;;;;4374326;28;659339;-86
2021/03/31 03:26:46;;;;;;;104.27;48.93;;;6.80;99.90;;;;;;4420970;28;658684;-85
2021/03/31 03:29:33;;;;;;;103.67;50.00;;;6.80;99.90;;;;;;4374914;28;658889;-85
2021/03/31 03:32:24;;;;;;;100.73;49.77;;;6.70;99.90;;;;;;4415177;28;658504;-86
2021/03/31 03:35:12;;;;;;;98.97;48.07;;;6.70;99.90;;;;;;4391660;28;658931;-86
2021/03/31 03:37:59;;;;;;;116.40;48.57;;;6.70;99.90;;;;;;4400217;28;657682;-85
2021/03/31 03:40:46;;;;;;;100.57;47.87;;;6.70;99.90;;;;;;4412559;28;658986;-85
2021/03/31 03:43:33;;;;;;;104.17;48.17;;;6.60;99.90;;;;;;4404633;28;658933;-86
2021/03/31 03:46:21;;;;;;;105.17;49.43;;;6.60;99.90;;;;;;4401952;28;659550;-86
2021/03/31 03:49:09;;;;;;;110.77;51.87;;;6.60;99.90;;;;;;4385538;28;658356;-85
2021/03/31 03:51:56;;;;;;;111.63;49.33;;;6.50;99.90;;;;;;4409150;28;658578;-86
2021/03/31 03:54:49;;;;;;;99.30;48.63;;;6.50;99.90;;;;;;4389069;28;659297;-86
2021/03/31 03:57:36;;;;;;;120.43;50.80;;;6.50;99.90;;;;;;4399520;28;657952;-85
2021/03/31 04:00:24;;;;;;;104.57;50.03;;;6.40;99.90;;;;;;4389810;28;659171;-85
2021/03/31 04:03:11;;;;;;;102.90;48.90;;;6.40;99.90;;;;;;4398668;28;658651;-86
2021/03/31 04:05:59;;;;;;;104.00;49.97;;;6.40;99.90;;;;;;4389793;28;658428;-86
2021/03/31 04:08:46;;;;;;;103.30;48.03;;;6.40;99.90;;;;;;4423638;28;658901;-85
2021/03/31 04:11:33;;;;;;;110.90;50.53;;;6.30;99.90;;;;;;4385722;28;658463;-86
2021/03/31 04:14:20;;;;;;;109.80;51.53;;;6.30;99.90;;;;;;4418975;28;658896;-86
2021/03/31 04:17:07;;;;;;;106.33;49.83;;;6.30;99.90;;;;;;4394201;28;658720;-86
2021/03/31 04:19:54;;;;;;;100.75;47.75;;;6.30;99.90;;;;;;4414308;28;659622;-86
2021/03/31 04:22:43;;;;;;;104.97;48.77;;;6.30;99.90;;;;;;4419154;28;658821;-86
2021/03/31 04:25:29;;;;;;;109.87;49.10;;;6.30;99.90;;;;;;4395864;28;659050;-86
2021/03/31 04:28:17;;;;;;;109.23;51.03;;;6.20;99.90;;;;;;4426184;28;658394;-86
2021/03/31 04:31:04;;;;;;;102.90;49.27;;;6.20;99.90;;;;;;4390116;28;659577;-86
2021/03/31 04:33:52;;;;;;;103.43;48.10;;;6.20;99.90;;;;;;4407345;28;658413;-86
2021/03/31 04:36:39;;;;;;;105.30;49.50;;;6.30;99.90;;;;;;4400483;28;658623;-85
2021/03/31 04:39:26;;;;;;;101.03;45.73;;;6.30;99.90;;;;;;4408332;28;659757;-85
2021/03/31 04:42:14;;;;;;;101.97;46.63;;;6.30;99.90;;;;;;4381217;28;658753;-86
2021/03/31 04:45:01;;;;;;;108.17;47.00;;;6.40;99.90;;;;;;4412918;28;659098;-86
2021/03/31 04:47:48;;;;;;;98.57;46.80;;;6.40;99.90;;;;;;4404322;28;658743;-86
2021/03/31 04:50:35;;;;;;;92.30;43.70;;;6.40;99.90;;;;;;4422336;28;658022;-86
2021/03/31 04:53:22;;;;;;;91.97;44.30;;;6.40;99.90;;;;;;4407504;28;657389;-86
2021/03/31 04:56:11;;;;;;;89.53;43.90;;;6.50;99.90;;;;;;4423482;28;658226;-85
2021/03/31 04:58:59;;;;;;;90.93;43.77;;;6.50;99.90;;;;;;4395604;28;657467;-86
2021/03/31 05:01:45;;;;;;;89.57;42.30;;;6.60;99.90;;;;;;4419971;28;657963;-86
2021/03/31 05:04:32;;;;;;;88.37;41.60;;;6.70;99.90;;;;;;4398561;28;658040;-86
2021/03/31 05:07:19;;;;;;;92.37;40.33;;;6.80;99.90;;;;;;4428541;28;657877;-84
2021/03/31 05:10:07;;;;;;;85.33;41.23;;;6.80;99.90;;;;;;4418696;28;657616;-86
2021/03/31 05:12:55;;;;;;;86.13;41.27;;;6.90;99.90;;;;;;4393411;28;659119;-86
2021/03/31 05:15:42;;;;;;;84.93;39.83;;;7.00;99.90;;;;;;4393788;28;658092;-86
2021/03/31 05:18:29;;;;;;;85.20;39.27;;;7.10;99.90;;;;;;4422079;28;657346;-86
2021/03/31 05:21:16;;;;;;;81.20;39.20;;;7.20;99.90;;;;;;4423851;28;657238;-85
2021/03/31 05:24:04;;;;;;;87.30;40.87;;;7.30;99.90;;;;;;4404938;28;658371;-86
2021/03/31 05:26:51;;;;;;;87.17;41.63;;;7.40;99.90;;;;;;4428638;28;657472;-86
2021/03/31 05:29:39;;;;;;;82.93;40.53;;;7.50;99.90;;;;;;4400220;28;657382;-86
2021/03/31 05:32:26;;;;;;;80.33;40.83;;;7.60;99.90;;;;;;4420400;28;657478;-85
2021/03/31 05:35:14;;;;;;;79.37;41.57;;;7.80;99.90;;;;;;4394217;28;658079;-86
2021/03/31 05:38:01;;;;;;;80.63;39.50;;;8.00;99.90;;;;;;4416834;28;658970;-85
2021/03/31 05:40:49;;;;;;;75.43;38.87;;;8.10;99.90;;;;;;4396868;28;657544;-86
2021/03/31 05:43:36;;;;;;;76.90;38.83;;;8.20;99.90;;;;;;4418075;28;657935;-85
2021/03/31 05:46:24;;;;;;;85.73;40.97;;;8.40;99.90;;;;;;4402604;28;657619;-86
2021/03/31 05:49:12;;;;;;;81.80;40.73;;;8.60;99.90;;;;;;4414000;28;657805;-86
2021/03/31 05:51:59;;;;;;;78.93;39.70;;;8.80;99.90;;;;;;4407354;28;658296;-86
2021/03/31 05:54:46;;;;;;;81.90;42.43;;;8.90;99.90;;;;;;4417829;28;657772;-86
2021/03/31 05:57:34;;;;;;;81.03;41.40;;;9.10;99.90;;;;;;4404493;28;658091;-86
2021/03/31 06:00:22;;;;;;;83.00;41.60;;;9.30;99.90;;;;;;4414838;28;657732;-86
2021/03/31 06:03:10;;;;;;;69.80;36.63;;;9.50;99.90;;;;;;4392474;28;657683;-85
2021/03/31 06:05:57;;;;;;;79.13;37.10;;;9.70;99.90;;;;;;4423021;28;657660;-86
2021/03/31 06:08:44;;;;;;;76.43;36.17;;;9.90;99.90;;;;;;4441642;28;657758;-85
2021/03/31 06:11:45;;;;;;;81.00;38.40;;;10.10;99.90;;;;;;4435052;28;657171;-86
2021/03/31 06:14:34;;;;;;;83.33;37.50;;;10.30;99.90;;;;;;4408624;28;658512;-86
2021/03/31 06:17:21;;;;;;;67.30;35.60;;;10.60;99.90;;;;;;4444710;28;659223;-86
2021/03/31 06:20:11;;;;;;;69.47;36.10;;;10.80;99.90;;;;;;4414165;28;658420;-87
2021/03/31 06:23:08;;;;;;;69.40;35.30;;;11.00;99.90;;;;;;4409921;28;659203;-86
2021/03/31 06:25:58;;;;;;;63.13;33.30;;;11.20;99.90;;;;;;4407368;28;658674;-87
2021/03/31 06:28:46;;;;;;;65.77;33.73;;;11.40;99.90;;;;;;4386880;28;658990;-87
2021/03/31 06:31:34;;;;;;;67.83;34.23;;;11.70;99.90;;;;;;4398379;28;658402;-87
2021/03/31 06:34:22;;;;;;;70.00;34.73;;;11.80;99.90;;;;;;4431143;28;658190;-86
2021/03/31 06:37:10;;;;;;;84.50;38.60;;;12.00;99.90;;;;;;4398738;28;659158;-87
2021/03/31 06:39:57;;;;;;;86.77;40.90;;;12.10;99.90;;;;;;4403934;28;658633;-86
2021/03/31 06:42:46;;;;;;;76.47;37.30;;;12.30;99.90;;;;;;4445855;28;659358;-87
2021/03/31 06:45:36;;;;;;;81.17;40.73;;;12.40;99.90;;;;;;4410505;28;659040;-87
2021/03/31 06:48:25;;;;;;;102.93;39.23;;;12.60;99.90;;;;;;4407050;28;658547;-87
2021/03/31 06:51:24;;;;;;;83.40;38.80;;;12.70;99.90;;;;;;4400150;28;659426;-87
2021/03/31 06:54:16;;;;;;;87.20;38.33;;;12.80;99.90;;;;;;4429276;28;658975;-86
2021/03/31 06:57:03;;;;;;;80.83;38.67;;;13.00;99.90;;;;;;4409025;28;658764;-86
2021/03/31 06:59:57;;;;;;;69.50;35.20;;;13.10;99.90;;;;;;4442883;28;659946;-86
2021/03/31 07:02:45;;;;;;;72.33;37.23;;;13.40;99.90;;;;;;4407568;28;659070;-86
2021/03/31 07:05:34;;;;;;;80.75;35.78;;;13.50;99.90;;;;;;4410792;28;658700;-86
2021/03/31 07:08:21;;;;;;;78.90;38.37;;;13.60;99.90;;;;;;4446605;28;658042;-86
2021/03/31 07:11:09;;;;;;;75.70;36.43;;;13.70;99.90;;;;;;4394482;28;658424;-87
2021/03/31 07:13:56;;;;;;;80.93;40.00;;;13.80;99.90;;;;;;4427194;28;658064;-87
2021/03/31 07:16:43;;;;;;;80.27;38.77;;;13.80;99.90;;;;;;4422118;28;658674;-87
2021/03/31 07:19:30;;;;;;;86.28;42.05;;;13.90;99.90;;;;;;4429359;28;659803;-87
2021/03/31 07:22:18;;;;;;;76.97;39.97;;;13.90;99.90;;;;;;4411366;28;658473;-87
2021/03/31 07:25:06;;;;;;;89.77;43.13;;;14.10;99.90;;;;;;4417474;28;659703;-86
2021/03/31 07:27:56;;;;;;;84.77;42.13;;;14.10;99.90;;;;;;4402746;28;658874;-87
2021/03/31 07:30:43;;;;;;;79.47;41.73;;;14.20;99.90;;;;;;4415320;28;658904;-89
2021/03/31 07:33:34;;;;;;;88.50;40.07;;;14.30;99.90;;;;;;4441613;28;658854;-88
2021/03/31 07:36:21;;;;;;;83.63;42.70;;;14.50;99.90;;;;;;4411649;28;659347;-89
2021/03/31 07:39:09;;;;;;;83.27;42.10;;;14.50;99.90;;;;;;4397583;28;659021;-88
2021/03/31 07:41:56;;;;;;;83.47;41.27;;;14.70;99.90;;;;;;4425717;28;659139;-85
2021/03/31 07:44:44;;;;;;;76.97;42.10;;;14.80;99.90;;;;;;4410845;28;658556;-87
2021/03/31 07:47:31;;;;;;;75.67;41.67;;;14.90;99.90;;;;;;4423211;28;658302;-88
2021/03/31 07:50:18;;;;;;;76.40;40.73;;;15.10;99.90;;;;;;4410784;28;658837;-90
2021/03/31 07:53:07;;;;;;;79.33;40.37;;;15.30;99.90;;;;;;4437042;28;659318;-88
2021/03/31 07:55:54;;;;;;;85.13;42.73;;;15.40;99.90;;;;;;4415466;28;658534;-88
2021/03/31 07:58:41;;;;;;;83.93;42.67;;;15.60;99.90;;;;;;4427675;28;658405;-88
2021/03/31 08:01:32;;;;;;;80.73;41.67;;;15.70;99.90;;;;;;4381792;28;658845;-88
2021/03/31 08:04:20;;;;;;;74.00;38.53;;;15.80;99.90;;;;;;4414914;28;658639;-86
2021/03/31 08:07:19;;;;;;;76.03;35.95;;;15.90;99.90;;;;;;4398599;28;659220;-85
2021/03/31 08:10:36;;;;;;;69.77;37.97;;;16.10;99.90;;;;;;4393105;28;659063;-85
2021/03/31 08:13:30;;;;;;;68.23;35.20;;;16.20;99.90;;;;;;4379537;28;659343;-85
2021/03/31 08:16:23;;;;;;;70.77;36.97;;;16.40;99.90;;;;;;4383599;28;658698;-85
2021/03/31 08:19:13;;;;;;;66.77;36.30;;;16.60;99.90;;;;;;4378733;28;658919;-84
2021/03/31 08:22:16;;;;;;;62.30;32.40;;;16.90;99.90;;;;;;4385085;28;659506;-84
2021/03/31 08:25:13;;;;;;;57.20;29.07;;;17.10;99.90;;;;;;4388333;28;658347;-84
2021/03/31 08:28:03;;;;;;;46.63;23.80;;;17.40;99.90;;;;;;4389527;28;658291;-84
2021/03/31 08:30:50;;;;;;;53.13;27.63;;;17.50;99.90;;;;;;4377487;28;658824;-85
2021/03/31 08:33:37;;;;;;;56.37;29.63;;;17.70;99.90;;;;;;4397893;28;659073;-85
2021/03/31 08:36:25;;;;;;;56.20;29.70;;;17.80;99.90;;;;;;4410302;28;659182;-84
2021/03/31 08:39:13;;;;;;;55.40;27.53;;;18.10;99.90;;;;;;4379125;28;658654;-85
2021/03/31 08:42:00;;;;;;;59.17;29.03;;;18.20;99.90;;;;;;4413786;28;659332;-85
2021/03/31 08:44:56;;;;;;;58.27;30.30;;;18.30;99.90;;;;;;4395213;28;658922;-85
2021/03/31 08:47:44;;;;;;;47.20;26.37;;;18.40;99.90;;;;;;4381878;28;658409;-85
2021/03/31 08:50:36;;;;;;;46.47;25.67;;;18.40;99.90;;;;;;4404706;28;659048;-85
2021/03/31 08:53:24;;;;;;;47.00;24.93;;;18.60;99.90;;;;;;4379223;28;658934;-85
2021/03/31 08:56:16;;;;;;;46.87;28.03;;;18.70;99.90;;;;;;4418306;28;659126;-86
2021/03/31 08:59:04;;;;;;;49.80;25.13;;;18.60;99.90;;;;;;4393314;28;658515;-85
2021/03/31 09:01:51;;;;;;;57.77;28.10;;;18.60;99.90;;;;;;4404907;28;658973;-85
2021/03/31 09:04:38;;;;;;;43.77;24.07;;;18.80;99.90;;;;;;4394096;28;658886;-85
2021/03/31 09:07:25;;;;;;;44.03;24.23;;;19.00;99.90;;;;;;4422592;28;659105;-85
2021/03/31 09:10:14;;;;;;;43.80;24.08;;;19.30;99.90;;;;;;4408139;28;659039;-85
2021/03/31 09:13:01;;;;;;;41.33;21.57;;;19.50;99.90;;;;;;4430866;28;659062;-85
2021/03/31 09:15:53;;;;;;;50.70;25.87;;;19.20;99.90;;;;;;4402682;28;658503;-85
2021/03/31 09:18:41;;;;;;;48.70;27.90;;;19.20;99.90;;;;;;4402433;28;659056;-85
2021/03/31 09:21:29;;;;;;;55.93;28.27;;;19.30;99.90;;;;;;4409280;28;658735;-86
2021/03/31 09:24:17;;;;;;;52.60;28.90;;;19.60;99.90;;;;;;4435101;28;658987;-86
2021/03/31 09:27:06;;;;;;;52.70;28.03;;;19.40;99.90;;;;;;4410494;28;659018;-85
2021/03/31 09:29:55;;;;;;;43.60;23.37;;;19.50;99.90;;;;;;4404621;28;659024;-85
2021/03/31 09:32:48;;;;;;;41.00;23.77;;;19.80;99.80;;;;;;4415000;28;659520;-87
2021/03/31 09:35:35;;;;;;;45.17;25.00;;;20.00;98.40;;;;;;4407822;28;659021;-85
2021/03/31 09:38:26;;;;;;;41.57;22.33;;;20.30;99.80;;;;;;4412239;28;658561;-85
2021/03/31 09:41:13;;;;;;;41.53;23.90;;;20.50;97.80;;;;;;4399331;28;658481;-85
2021/03/31 09:44:01;;;;;;;40.83;24.20;;;20.30;97.30;;;;;;4431647;28;658867;-85
2021/03/31 09:46:48;;;;;;;37.10;22.23;;;20.10;97.40;;;;;;4401976;28;658719;-85
2021/03/31 09:49:35;;;;;;;40.17;21.37;;;20.10;97.10;;;;;;4435001;28;658909;-85
2021/03/31 09:52:25;;;;;;;38.70;20.53;;;20.30;99.10;;;;;;4408595;28;658696;-86
2021/03/31 09:55:14;;;;;;;34.60;20.93;;;20.70;97.20;;;;;;4421546;28;659338;-85
2021/03/31 09:58:01;;;;;;;32.77;17.53;;;20.90;96.30;;;;;;4424223;28;658802;-85
2021/03/31 10:00:49;;;;;;;36.13;19.90;;;20.80;95.60;;;;;;4408674;28;658668;-85
2021/03/31 10:03:36;;;;;;;32.28;18.33;;;20.60;94.30;;;;;;4431940;28;658566;-85
2021/03/31 10:06:25;;;;;;;32.40;17.90;;;20.80;95.40;;;;;;4396898;28;659008;-85
2021/03/31 10:09:16;;;;;;;31.07;16.30;;;21.00;94.40;;;;;;4413905;28;658515;-85
2021/03/31 10:12:04;;;;;;;29.30;15.50;;;21.00;93.30;;;;;;4401638;28;658449;-85
2021/03/31 10:14:52;;;;;;;23.30;13.10;;;21.40;94.70;;;;;;4429124;28;658839;-84
2021/03/31 10:17:41;;;;;;;25.23;13.37;;;21.60;94.50;;;;;;4412433;28;658767;-86
2021/03/31 10:20:30;;;;;;;26.53;15.60;;;21.90;92.20;;;;;;4402695;28;658663;-85
2021/03/31 10:23:25;;;;;;;32.43;15.90;;;22.00;92.20;;;;;;4415714;28;658996;-85
2021/03/31 10:26:17;;;;;;;21.73;13.00;;;21.90;90.90;;;;;;4403859;28;658762;-84
2021/03/31 10:29:06;;;;;;;26.00;11.57;;;22.00;88.90;;;;;;4411220;28;658864;-85
2021/03/31 10:31:54;;;;;;;20.67;11.17;;;22.00;90.90;;;;;;4401263;28;658535;-85
2021/03/31 10:34:43;;;;;;;20.53;11.40;;;22.50;90.30;;;;;;4420216;28;658281;-84
2021/03/31 10:37:33;;;;;;;21.50;11.87;;;22.50;87.30;;;;;;4401455;28;658880;-84
2021/03/31 10:40:48;;;;;;;25.30;13.23;;;22.50;88.90;;;;;;4403013;28;659455;-85
2021/03/31 10:49:49;;;;;;;21.97;11.77;;;22.90;85.10;;;;;;4377122;28;659396;-85
2021/03/31 10:52:45;;;;;;;22.17;11.93;;;23.00;83.50;;;;;;4399972;28;658967;-85
2021/03/31 10:55:32;;;;;;;20.47;12.50;;;23.00;82.00;;;;;;4375875;28;659479;-87
2021/03/31 10:58:20;;;;;;;23.20;12.57;;;23.20;80.90;;;;;;4424572;28;658641;-86
2021/03/31 11:01:07;;;;;;;27.70;14.23;;;23.20;79.70;;;;;;4403610;28;658869;-86
2021/03/31 11:03:54;;;;;;;25.23;12.77;;;23.10;80.80;;;;;;4395733;28;659832;-86
2021/03/31 11:06:42;;;;;;;22.87;13.33;;;23.50;80.30;;;;;;4419388;28;658823;-86
2021/03/31 11:09:29;;;;;;;21.37;11.93;;;23.70;78.00;;;;;;4397945;28;659359;-86
2021/03/31 11:12:17;;;;;;;21.40;10.93;;;23.90;76.00;;;;;;4446057;28;658456;-86
2021/03/31 11:15:05;;;;;;;20.10;10.43;;;23.60;75.40;;;;;;4423874;28;659290;-86
2021/03/31 11:18:04;;;;;;;20.23;11.13;;;23.40;76.10;;;;;;4429587;28;659440;-87
2021/03/31 11:21:04;;;;;;;18.93;11.10;;;23.40;76.90;;;;;;4400760;28;658919;-86
2021/03/31 11:26:57;;;;;;;18.63;10.30;;;23.60;76.20;;;;;;4415443;28;658471;-86
2021/03/31 11:29:44;;;;;;;19.83;10.67;;;23.60;74.40;;;;;;4442388;28;658695;-86
2021/03/31 11:32:31;;;;;;;19.73;10.97;;;23.60;74.50;;;;;;4433776;28;658472;-86
2021/03/31 11:35:19;;;;;;;21.77;11.00;;;23.70;74.00;;;;;;4403897;28;659104;-86
2021/03/31 11:38:06;;;;;;;20.37;11.00;;;23.40;75.30;;;;;;4430817;28;659671;-86
2021/03/31 11:40:54;;;;;;;20.33;10.63;;;23.20;75.60;;;;;;4425460;28;658842;-86
2021/03/31 11:43:41;;;;;;;19.03;9.87;;;23.50;74.40;;;;;;4437933;28;659058;-86
2021/03/31 11:46:28;;;;;;;17.53;9.63;;;24.20;75.10;;;;;;4418303;28;658527;-87
2021/03/31 11:49:15;;;;;;;17.07;9.97;;;24.60;72.60;;;;;;4431411;28;658950;-87
2021/03/31 11:52:03;;;;;;;17.43;10.17;;;24.70;70.00;;;;;;4426683;28;657411;-86
2021/03/31 11:54:50;;;;;;;17.47;10.10;;;24.30;71.10;;;;;;4434042;28;659849;-87
2021/03/31 11:57:38;;;;;;;16.20;8.33;;;23.80;70.40;;;;;;4420633;28;658857;-88
2021/03/31 12:00:25;;;;;;;16.77;8.73;;;23.60;72.30;;;;;;4428683;28;657683;-86
2021/03/31 12:03:12;;;;;;;18.63;10.10;;;23.90;72.20;;;;;;4387620;28;658669;-86
2021/03/31 12:06:00;;;;;;;18.70;9.47;;;24.00;71.30;;;;;;4432489;28;659453;-86
2021/03/31 12:08:49;;;;;;;14.52;6.03;;;24.80;70.10;;;;;;4393475;28;657925;-85
2021/03/31 12:11:36;;;;;;;10.10;5.60;;;24.70;70.50;;;;;;4430433;28;657728;-87
2021/03/31 12:14:24;;;;;;;12.80;5.68;;;24.30;68.70;;;;;;4382434;28;657996;-85
2021/03/31 12:17:12;;;;;;;10.20;5.67;;;25.00;68.40;;;;;;4415836;28;657868;-86
2021/03/31 12:19:59;;;;;;;10.50;5.70;;;24.80;66.20;;;;;;4405834;28;657581;-86
2021/03/31 12:22:46;;;;;;;11.73;5.37;;;24.60;69.50;;;;;;4415233;28;657925;-86
2021/03/31 12:25:34;;;;;;;11.40;5.13;;;24.70;69.00;;;;;;4398217;28;658220;-85
2021/03/31 12:28:24;;;;;;;14.07;5.95;;;25.00;71.10;;;;;;4400089;28;657424;-85
2021/03/31 12:31:12;;;;;;;15.68;7.03;;;25.30;66.50;;;;;;4375984;28;657560;-86
2021/03/31 12:33:59;;;;;;;13.10;5.90;;;25.40;64.10;;;;;;4393527;28;657739;-85
2021/03/31 12:36:46;;;;;;;14.38;5.72;;;25.20;64.20;;;;;;4413242;28;657317;-86
2021/03/31 12:39:34;;;;;;;16.05;7.35;;;25.00;65.80;;;;;;4393555;28;657889;-86
2021/03/31 12:42:21;;;;;;;10.05;6.20;;;24.90;64.80;;;;;;4421181;28;657897;-85
2021/03/31 12:45:09;;;;;;;17.15;8.15;;;25.30;66.20;;;;;;4395539;28;657463;-86
2021/03/31 12:47:57;;;;;;;14.57;8.60;;;25.50;63.70;;;;;;4379092;28;657425;-86
2021/03/31 12:50:45;;;;;;;15.82;7.80;;;25.30;64.40;;;;;;4376949;28;658167;-87
2021/03/31 12:53:33;;;;;;;14.55;6.82;;;25.90;67.90;;;;;;4381938;28;657649;-87
2021/03/31 12:56:21;;;;;;;17.50;7.57;;;25.80;63.10;;;;;;4419112;28;658775;-86
2021/03/31 12:59:08;;;;;;;11.48;6.57;;;25.40;62.60;;;;;;4369793;28;657671;-85
2021/03/31 13:01:58;;;;;;;16.98;7.75;;;25.60;65.70;;;;;;4405968;28;657326;-85
2021/03/31 13:04:46;;;;;;;10.95;6.63;;;25.70;62.10;;;;;;4389170;28;657913;-85
2021/03/31 13:07:35;;;;;;;14.35;7.75;;;25.80;64.50;;;;;;4405203;28;657752;-85
2021/03/31 13:10:24;;;;;;;17.15;7.78;;;25.90;61.10;;;;;;4379811;28;657800;-86
2021/03/31 13:13:16;;;;;;;13.80;6.63;;;26.30;61.10;;;;;;4396195;28;657409;-85
2021/03/31 13:16:06;;;;;;;11.50;6.35;;;26.00;61.80;;;;;;4389287;28;658156;-85
2021/03/31 13:22:00;;;;;;;13.90;6.55;;;26.20;60.40;;;;;;4328631;28;658073;-85
2021/03/31 13:24:54;;;;;;;11.32;6.07;;;26.50;59.40;;;;;;4305891;28;657443;-85
2021/03/31 13:28:09;;;;;;;12.05;6.25;;;26.10;59.00;;;;;;4314724;28;658244;-85
2021/03/31 13:31:02;;;;;;;13.77;6.45;;;25.00;61.30;;;;;;4311955;28;657669;-85
2021/03/31 13:33:54;;;;;;;13.18;6.50;;;25.00;61.60;;;;;;4296712;28;657736;-85
2021/03/31 13:36:44;;;;;;;10.95;6.00;;;24.50;62.00;;;;;;4300489;28;657726;-85
2021/03/31 13:39:35;;;;;;;10.20;5.53;;;24.60;63.10;;;;;;4291402;28;658533;-86
2021/03/31 13:42:22;;;;;;;14.13;6.22;;;25.00;63.20;;;;;;4302063;28;657495;-85
2021/03/31 13:45:10;;;;;;;15.35;6.55;;;25.30;62.30;;;;;;4326913;28;657292;-86
2021/03/31 13:47:59;;;;;;;16.48;6.15;;;25.40;62.40;;;;;;4315506;28;658059;-86
2021/03/31 13:50:46;;;;;;;12.32;6.50;;;25.60;61.20;;;;;;4327725;28;657869;-85
2021/03/31 13:53:35;;;;;;;12.15;6.28;;;25.50;60.10;;;;;;4315174;28;658467;-85
2021/03/31 13:56:27;;;;;;;17.65;6.40;;;25.60;61.00;;;;;;4315008;28;657675;-85
2021/03/31 13:59:14;;;;;;;15.90;5.18;;;26.00;62.40;;;;;;4309390;28;657971;-85
2021/03/31 14:02:01;;;;;;;10.57;5.28;;;26.60;58.60;;;;;;4354971;28;657196;-85
2021/03/31 14:04:48;;;;;;;10.90;5.65;;;26.70;59.60;;;;;;4392752;28;657942;-85
2021/03/31 14:07:35;;;;;;;12.68;5.90;;;26.60;57.80;;;;;;4435213;28;657912;-85
2021/03/31 14:10:22;;;;;;;13.63;6.75;;;26.50;58.20;;;;;;4422047;28;657668;-85
2021/03/31 14:13:11;;;;;;;12.65;6.55;;;26.20;58.60;;;;;;4432296;28;658535;-85
2021/03/31 14:15:58;;;;;;;12.23;5.82;;;26.10;58.70;;;;;;4414217;28;657461;-84
2021/03/31 14:18:45;;;;;;;14.07;6.55;;;26.20;59.50;;;;;;4434410;28;658291;-84
2021/03/31 14:21:32;;;;;;;12.27;6.13;;;26.10;59.50;;;;;;4411845;28;658330;-85